Time;durP1;ratioP1;P1;durP2;ratioP2;P2;SDS_P1;SDS_P2;PMS_P1;PMS_P2;Temp;Humidity;BMP_temperature;BMP_pressure;BME280_temperature;BME280_humidity;BME280_pressure;Samples;Min_cycle;Max_cycle;Signal;HPM_P1;HPM_P2
2023/05/08 00:00:47;;;;;;;10.80;5.35;;;;;;;11.48;79.14;100764.38;5109973;28;20027;-68
2023/05/08 00:03:12;;;;;;;8.07;5.43;;;;;;;11.46;79.96;100766.38;5109791;28;20070;-67
2023/05/08 00:05:40;;;;;;;9.30;6.35;;;;;;;11.39;79.98;100770.53;5109559;28;20019;-67
2023/05/08 00:08:06;;;;;;;7.20;5.65;;;;;;;11.41;79.46;100763.19;5109693;28;20047;-67
2023/05/08 00:10:31;;;;;;;8.02;4.75;;;;;;;11.38;79.74;100763.44;5113452;28;20080;-67
2023/05/08 00:12:57;;;;;;;7.72;5.50;;;;;;;11.34;80.37;100762.00;5113504;28;20027;-67
2023/05/08 00:15:23;;;;;;;12.45;5.60;;;;;;;11.24;80.11;100744.97;5113372;28;20035;-67
2023/05/08 00:17:49;;;;;;;6.03;5.00;;;;;;;11.37;79.98;100763.59;5113262;28;20029;-67
2023/05/08 00:20:14;;;;;;;6.25;4.82;;;;;;;11.27;80.38;100754.59;5112947;28;20121;-67
2023/05/08 00:22:39;;;;;;;9.32;5.93;;;;;;;11.19;80.08;100747.16;5113177;28;20027;-67
2023/05/08 00:25:05;;;;;;;14.73;5.68;;;;;;;11.24;79.91;100757.53;5112771;28;20110;-67
2023/05/08 00:27:31;;;;;;;6.50;5.47;;;;;;;11.23;79.27;100764.72;5112970;28;20379;-67
2023/05/08 00:29:57;;;;;;;7.10;5.60;;;;;;;11.11;79.19;100746.13;5113184;28;20034;-67
2023/05/08 00:32:23;;;;;;;8.70;5.45;;;;;;;11.18;79.33;100766.97;5113027;28;20110;-67
2023/05/08 00:34:49;;;;;;;7.97;5.38;;;;;;;11.00;80.31;100755.03;5112986;28;20024;-67
2023/05/08 00:37:15;;;;;;;6.25;5.20;;;;;;;11.13;79.07;100782.59;5112753;28;20092;-66
2023/05/08 00:39:40;;;;;;;7.20;5.30;;;;;;;11.07;80.26;100784.94;5112737;28;20560;-66
2023/05/08 00:42:06;;;;;;;10.52;5.93;;;;;;;11.09;80.25;100778.44;5112265;28;20479;-67
2023/05/08 00:44:31;;;;;;;5.55;4.95;;;;;;;10.98;80.30;100765.06;5112291;28;20094;-67
2023/05/08 00:46:57;;;;;;;6.57;4.95;;;;;;;11.04;79.58;100783.38;5111102;28;20071;-67
2023/05/08 00:49:24;;;;;;;8.70;4.72;;;;;;;10.87;79.77;100757.03;5112423;28;20097;-67
2023/05/08 00:51:51;;;;;;;8.13;5.43;;;;;;;10.96;80.06;100775.06;5112232;28;20488;-67
2023/05/08 00:54:17;;;;;;;11.60;5.10;;;;;;;10.85;80.76;100776.94;5112460;28;20049;-67
2023/05/08 00:56:44;;;;;;;6.97;5.13;;;;;;;10.86;81.43;100792.91;5112376;28;20027;-67
2023/05/08 00:59:13;;;;;;;9.88;5.55;;;;;;;10.78;81.23;100784.66;5091767;28;20040;-68
2023/05/08 01:01:39;;;;;;;5.60;5.00;;;;;;;10.75;81.45;100784.03;5091781;28;20120;-67
2023/05/08 01:04:06;;;;;;;8.23;5.20;;;;;;;10.76;81.46;100789.28;5091890;28;20032;-67
2023/05/08 01:06:33;;;;;;;8.93;4.70;;;;;;;10.76;80.79;100791.09;5092079;28;20059;-67
2023/05/08 01:08:59;;;;;;;6.30;4.68;;;;;;;10.75;80.84;100784.03;5091989;28;20032;-67
2023/05/08 01:11:33;;;;;;;6.68;4.07;;;;;;;10.70;80.10;100787.06;5092056;28;20069;-67
2023/05/08 01:14:17;;;;;;;7.30;4.13;;;;;;;10.70;79.93;100797.81;5092062;28;20035;-67
2023/05/08 01:16:57;;;;;;;5.45;4.55;;;;;;;10.64;79.76;100794.78;5091339;28;20023;-67
2023/05/08 01:19:40;;;;;;;6.18;3.80;;;;;;;10.62;79.84;100802.09;5110340;28;20042;-67
2023/05/08 01:22:17;;;;;;;6.25;3.72;;;;;;;10.58;79.76;100806.00;5111204;28;20032;-67
2023/05/08 01:25:01;;;;;;;8.88;3.83;;;;;;;10.58;79.16;100814.06;5110889;27;20115;-67
2023/05/08 01:27:55;;;;;;;4.00;3.38;;;;;;;10.56;78.60;100816.84;5110974;28;20032;-67
2023/05/08 01:30:47;;;;;;;7.05;3.65;;;;;;;10.55;78.59;100828.53;5110770;28;20504;-67
2023/05/08 01:33:22;;;;;;;5.78;3.55;;;;;;;10.57;78.14;100829.28;5110613;28;20042;-67
2023/05/08 01:35:55;;;;;;;5.32;3.67;;;;;;;10.58;76.95;100830.16;5110755;28;20024;-66
2023/05/08 01:38:36;;;;;;;7.13;3.35;;;;;;;10.53;77.30;100829.63;5110747;28;20039;-66
2023/05/08 01:41:17;;;;;;;4.60;3.17;;;;;;;10.45;77.13;100835.59;5110521;28;20028;-67
2023/05/08 01:43:51;;;;;;;7.20;2.90;;;;;;;10.43;76.44;100839.38;5110633;27;20019;-67
2023/05/08 01:46:24;;;;;;;5.75;3.22;;;;;;;10.38;76.70;100841.59;5110350;28;20035;-67
2023/05/08 01:48:58;;;;;;;3.60;2.97;;;;;;;10.27;76.67;100831.72;5110238;28;20031;-67
2023/05/08 01:51:26;;;;;;;4.47;2.63;;;;;;;10.35;75.98;100842.66;5110544;28;20028;-67
2023/05/08 01:53:59;;;;;;;3.42;2.97;;;;;;;10.30;75.93;100844.88;5110392;27;20034;-67
2023/05/08 01:56:28;;;;;;;6.00;3.40;;;;;;;10.30;76.21;100847.56;5110340;28;20159;-67
2023/05/08 01:58:56;;;;;;;5.63;2.90;;;;;;;10.18;76.41;100837.78;5110217;28;20391;-67
2023/05/08 02:01:24;;;;;;;6.78;3.08;;;;;;;10.26;75.69;100842.56;5110219;28;20080;-67
2023/05/08 02:03:51;;;;;;;3.78;2.78;;;;;;;10.26;75.58;100862.19;5109923;28;20122;-67
2023/05/08 02:06:19;;;;;;;5.80;2.55;;;;;;;10.25;75.16;100849.72;5110018;28;20123;-67
2023/05/08 02:08:46;;;;;;;6.43;2.67;;;;;;;10.25;75.03;100848.91;5110195;28;20057;-66
2023/05/08 02:11:13;;;;;;;4.47;2.35;;;;;;;10.29;74.46;100859.22;5109917;28;20030;-67
2023/05/08 02:13:40;;;;;;;3.88;2.60;;;;;;;10.26;74.19;100859.50;5110335;28;20058;-67
2023/05/08 02:16:07;;;;;;;6.22;2.13;;;;;;;10.32;74.02;100869.72;5108478;28;20172;-67
2023/05/08 02:18:34;;;;;;;5.03;2.50;;;;;;;10.27;73.72;100863.00;5109587;28;20042;-67
2023/05/08 02:21:03;;;;;;;5.38;2.58;;;;;;;10.27;73.58;100871.91;5109173;28;20106;-67
2023/05/08 02:23:30;;;;;;;3.63;2.33;;;;;;;10.24;73.75;100877.53;5109229;28;20350;-67
2023/05/08 02:25:56;;;;;;;3.05;2.13;;;;;;;10.22;73.38;100865.22;5108827;28;20035;-67
2023/05/08 02:28:23;;;;;;;4.38;2.88;;;;;;;10.22;73.78;100874.09;5108978;28;20020;-67
2023/05/08 02:30:50;;;;;;;3.60;2.05;;;;;;;10.20;73.68;100873.38;5104483;28;21121;-67
2023/05/08 02:33:17;;;;;;;3.20;2.17;;;;;;;10.18;73.78;100878.00;5103751;28;20023;-67
2023/05/08 02:35:44;;;;;;;3.38;2.40;;;;;;;10.17;74.01;100884.34;5106683;28;20023;-67
2023/05/08 02:38:13;;;;;;;5.43;2.05;;;;;;;10.13;73.73;100874.78;5108186;28;20122;-67
2023/05/08 02:40:45;;;;;;;4.63;2.22;;;;;;;10.06;73.15;100860.16;5100782;28;20035;-67
2023/05/08 02:43:11;;;;;;;3.20;2.08;;;;;;;10.13;73.40;100872.13;5104120;28;20107;-67
2023/05/08 02:46:02;;;;;;;4.97;2.45;;;;;;;10.11;73.31;100870.53;5107751;28;20030;-67
2023/05/08 02:48:36;;;;;;;2.85;2.10;;;;;;;10.07;73.47;100872.63;5099718;28;20475;-67
2023/05/08 02:51:06;;;;;;;2.22;1.80;;;;;;;10.08;73.40;100873.44;5104963;28;20447;-67
2023/05/08 02:53:36;;;;;;;2.25;1.85;;;;;;;10.07;73.46;100880.66;5108665;28;20097;-67
2023/05/08 02:56:10;;;;;;;2.83;1.80;;;;;;;10.10;73.31;100877.75;5108988;28;20158;-67
2023/05/08 02:58:44;;;;;;;4.25;2.05;;;;;;;10.01;73.54;100873.06;5106050;28;20032;-67
2023/05/08 03:01:26;;;;;;;3.78;1.70;;;;;;;9.96;74.20;100877.88;5106125;28;20023;-67
2023/05/08 03:04:06;;;;;;;2.35;1.70;;;;;;;9.97;73.46;100871.59;5108139;28;20028;-67
2023/05/08 03:06:39;;;;;;;2.08;1.48;;;;;;;9.94;73.77;100871.81;5109351;28;20034;-67
2023/05/08 03:09:06;;;;;;;4.60;1.85;;;;;;;9.89;73.50;100868.63;5109100;28;20092;-67
2023/05/08 03:11:39;;;;;;;3.53;1.52;;;;;;;9.95;73.39;100867.28;5109032;28;20098;-67
2023/05/08 03:14:10;;;;;;;2.22;1.88;;;;;;;9.98;73.54;100880.47;5109112;28;20110;-67
2023/05/08 03:16:38;;;;;;;3.03;1.85;;;;;;;9.88;74.10;100863.38;5109417;28;20023;-67
2023/05/08 03:19:16;;;;;;;2.47;1.73;;;;;;;9.94;73.86;100873.63;5109089;28;20041;-67
2023/05/08 03:21:43;;;;;;;2.70;1.88;;;;;;;9.92;73.81;100873.75;5108952;28;20030;-67
2023/05/08 03:24:09;;;;;;;3.10;1.92;;;;;;;9.89;74.26;100873.97;5108547;28;20028;-67
2023/05/08 03:26:35;;;;;;;1.42;1.30;;;;;;;9.90;73.88;100873.00;5108641;28;20108;-67
2023/05/08 03:29:01;;;;;;;2.65;2.00;;;;;;;9.91;74.32;100874.72;5107733;28;20048;-67
2023/05/08 03:31:30;;;;;;;2.03;1.45;;;;;;;9.94;73.31;100869.13;5105820;28;20024;-67
2023/05/08 03:33:56;;;;;;;1.77;1.40;;;;;;;9.94;73.00;100881.66;5108307;28;20518;-67
2023/05/08 03:36:25;;;;;;;1.63;1.50;;;;;;;9.99;72.59;100885.69;5107887;28;20015;-67
2023/05/08 03:38:51;;;;;;;2.10;1.30;;;;;;;9.94;73.20;100885.22;5106851;28;20086;-67
2023/05/08 03:41:16;;;;;;;3.15;1.25;;;;;;;9.96;72.83;100885.09;5107391;28;20067;-67
2023/05/08 03:43:42;;;;;;;1.80;1.52;;;;;;;9.94;72.88;100889.69;5109822;28;21604;-67
2023/05/08 03:46:09;;;;;;;2.33;1.23;;;;;;;9.92;72.56;100892.50;5111419;28;20071;-67
2023/05/08 03:48:34;;;;;;;2.53;1.10;;;;;;;9.94;72.42;100901.28;5111869;28;20051;-67
2023/05/08 03:51:02;;;;;;;1.30;1.20;;;;;;;9.98;71.89;100899.22;5111985;28;20075;-67
2023/05/08 03:53:32;;;;;;;2.40;1.52;;;;;;;9.96;72.38;100898.50;5112062;28;20088;-67
2023/05/08 03:55:58;;;;;;;2.20;1.50;;;;;;;9.92;72.34;100895.19;5112456;28;20082;-67
2023/05/08 03:58:45;;;;;;;1.33;1.10;;;;;;;9.96;71.78;100904.69;5112617;28;20027;-66
2023/05/08 04:01:22;;;;;;;1.88;1.10;;;;;;;9.93;72.48;100901.41;5112368;28;20023;-66
2023/05/08 04:04:18;;;;;;;2.78;1.50;;;;;;;10.02;72.04;100906.91;5111218;28;20035;-67
2023/05/08 04:07:04;;;;;;;2.60;0.98;;;;;;;10.04;71.97;100904.09;5112630;28;20031;-67
2023/05/08 04:09:42;;;;;;;1.40;1.08;;;;;;;10.13;71.65;100909.63;5110965;28;20046;-67
2023/05/08 04:12:21;;;;;;;2.70;1.33;;;;;;;10.13;70.76;100909.63;5112128;28;20030;-66
2023/05/08 04:14:54;;;;;;;1.10;1.00;;;;;;;10.10;71.26;100904.53;5109778;28;20315;-68
2023/05/08 04:17:44;;;;;;;1.40;1.00;;;;;;;10.19;70.44;100909.19;5110087;28;20053;-66
2023/05/08 04:20:15;;;;;;;1.08;0.93;;;;;;;10.15;70.63;100910.38;5091775;28;20028;-66
2023/05/08 04:22:42;;;;;;;1.75;1.25;;;;;;;10.19;70.57;100925.25;5092273;28;20028;-66
2023/05/08 04:25:09;;;;;;;1.23;0.82;;;;;;;10.26;70.27;100920.28;5096312;28;20034;-66
2023/05/08 04:27:36;;;;;;;2.63;1.00;;;;;;;10.30;70.22;100921.75;5112240;28;20024;-67
2023/05/08 04:30:01;;;;;;;3.70;1.02;;;;;;;10.29;70.59;100931.63;5109861;28;20373;-67
2023/05/08 04:32:28;;;;;;;5.55;1.25;;;;;;;10.27;70.42;100922.84;5112087;28;20027;-67
2023/05/08 04:34:55;;;;;;;3.20;1.00;;;;;;;10.23;69.81;100905.31;5112304;28;20027;-67
2023/05/08 04:37:27;;;;;;;1.13;0.80;;;;;;;10.25;70.38;100927.47;5111819;28;20026;-67
2023/05/08 04:39:53;;;;;;;1.10;0.88;;;;;;;10.32;70.69;100942.09;5111684;27;20036;-67
2023/05/08 04:42:20;;;;;;;0.98;0.90;;;;;;;10.38;69.90;100940.81;5111384;28;20089;-66
2023/05/08 04:44:46;;;;;;;3.42;0.88;;;;;;;10.37;69.89;100939.06;5108891;28;20498;-67
2023/05/08 04:47:12;;;;;;;3.20;1.05;;;;;;;10.38;69.67;100947.00;5109990;28;20023;-67
2023/05/08 04:49:38;;;;;;;1.45;1.00;;;;;;;10.39;69.70;100940.69;5111455;28;20034;-67
2023/05/08 04:52:05;;;;;;;3.33;1.25;;;;;;;10.42;69.47;100943.09;5111628;28;20468;-67
2023/05/08 04:54:30;;;;;;;1.63;0.70;;;;;;;10.53;68.88;100967.28;5110603;28;20051;-66
2023/05/08 04:56:56;;;;;;;1.15;1.00;;;;;;;10.53;69.00;100958.38;5111531;28;20027;-67
2023/05/08 04:59:21;;;;;;;1.50;0.90;;;;;;;10.51;68.71;100953.13;5111217;28;20023;-67
2023/05/08 05:01:47;;;;;;;2.42;1.10;;;;;;;10.60;68.96;100962.28;5110783;28;20019;-67
2023/05/08 05:04:12;;;;;;;1.33;0.93;;;;;;;10.63;68.49;100970.97;5111460;28;20044;-66
2023/05/08 05:06:37;;;;;;;1.85;0.90;;;;;;;10.67;68.87;100971.56;5111846;28;20057;-67
2023/05/08 05:09:04;;;;;;;2.45;0.70;;;;;;;10.69;69.09;100970.50;5111619;28;20024;-67
2023/05/08 05:11:29;;;;;;;1.48;1.05;;;;;;;10.70;68.78;100979.38;5111166;28;20127;-67
2023/05/08 05:13:55;;;;;;;1.80;0.80;;;;;;;10.76;68.69;100978.91;5109632;28;20493;-68
2023/05/08 05:16:20;;;;;;;1.48;0.90;;;;;;;10.69;68.78;100958.91;5111112;28;20424;-67
2023/05/08 05:18:46;;;;;;;3.97;1.17;;;;;;;10.79;68.85;100981.34;5110897;28;20039;-66
2023/05/08 05:21:12;;;;;;;2.08;0.95;;;;;;;10.83;68.34;100975.63;5110969;28;20027;-66
2023/05/08 05:23:37;;;;;;;1.10;0.65;;;;;;;10.79;68.21;100974.16;5110519;28;20027;-66
2023/05/08 05:26:03;;;;;;;1.08;0.90;;;;;;;10.88;68.27;100972.59;5110618;28;20483;-67
2023/05/08 05:28:28;;;;;;;2.08;1.02;;;;;;;10.93;68.63;100975.78;5110503;28;20034;-67
2023/05/08 05:30:54;;;;;;;2.00;0.90;;;;;;;10.92;68.77;100985.66;5111019;28;20031;-67
2023/05/08 05:33:20;;;;;;;1.33;1.08;;;;;;;10.74;68.46;100943.31;5110036;28;20039;-67
2023/05/08 05:35:45;;;;;;;4.45;1.30;;;;;;;10.82;67.74;100962.31;5110702;28;20110;-67
2023/05/08 05:38:11;;;;;;;1.42;0.90;;;;;;;10.83;67.67;100969.38;5110833;28;20050;-67
2023/05/08 05:40:36;;;;;;;1.98;1.00;;;;;;;10.99;67.48;100988.69;5103649;28;20039;-66
2023/05/08 05:43:01;;;;;;;1.33;0.90;;;;;;;10.85;67.68;100973.69;5109539;28;20099;-67
2023/05/08 05:45:27;;;;;;;6.45;1.33;;;;;;;10.97;68.31;100979.91;5110479;28;20063;-67
2023/05/08 05:47:52;;;;;;;1.83;0.98;;;;;;;11.01;68.36;100997.47;5110870;28;20387;-66
2023/05/08 05:50:18;;;;;;;3.80;0.80;;;;;;;11.02;67.57;100989.31;5110405;28;20483;-67
2023/05/08 05:52:44;;;;;;;5.80;1.15;;;;;;;11.06;67.30;100982.72;5110321;28;20111;-67
2023/05/08 05:55:10;;;;;;;3.53;1.00;;;;;;;11.02;66.81;100983.06;5110121;28;20045;-67
2023/05/08 05:57:36;;;;;;;0.85;0.85;;;;;;;11.00;67.21;100977.00;5109946;28;20027;-61
2023/05/08 06:00:03;;;;;;;5.40;1.30;;;;;;;11.09;67.75;100985.16;5107760;28;20023;-61
2023/05/08 06:02:29;;;;;;;2.85;1.02;;;;;;;11.15;67.30;100990.03;5109897;28;20041;-61
2023/05/08 06:04:54;;;;;;;4.22;1.15;;;;;;;11.06;68.02;100961.25;5108869;28;20044;-61
2023/05/08 06:07:20;;;;;;;1.75;0.98;;;;;;;11.16;68.59;100978.31;5109672;28;20365;-61
2023/05/08 06:09:46;;;;;;;4.68;1.48;;;;;;;11.19;68.78;100983.44;5110494;28;20019;-60
2023/05/08 06:12:12;;;;;;;2.55;1.55;;;;;;;11.24;68.60;100981.25;5108876;28;20447;-61
2023/05/08 06:14:37;;;;;;;2.00;1.30;;;;;;;11.31;68.07;100986.97;5109429;28;20106;-60
2023/05/08 06:17:03;;;;;;;1.15;1.05;;;;;;;11.39;68.09;100993.44;5109262;28;20031;-60
2023/05/08 06:19:28;;;;;;;3.28;1.30;;;;;;;11.40;68.11;100997.84;5109810;28;20036;-61
2023/05/08 06:21:53;;;;;;;2.05;1.60;;;;;;;11.46;67.45;101000.06;5109591;28;20475;-60
2023/05/08 06:24:19;;;;;;;1.95;1.02;;;;;;;11.51;68.49;100996.97;5109378;28;20084;-60
2023/05/08 06:26:45;;;;;;;2.50;1.38;;;;;;;11.60;67.41;100992.72;5109643;28;20503;-61
2023/05/08 06:29:11;;;;;;;2.75;1.17;;;;;;;11.62;66.82;100996.13;5109466;28;20106;-60
2023/05/08 06:31:37;;;;;;;1.20;1.00;;;;;;;11.63;67.09;100985.25;5108919;28;20098;-60
2023/05/08 06:34:02;;;;;;;1.50;1.20;;;;;;;11.65;66.91;100982.44;5109252;28;20459;-60
2023/05/08 06:36:28;;;;;;;3.38;1.23;;;;;;;11.87;65.79;100994.03;5109276;28;20106;-60
2023/05/08 06:38:53;;;;;;;3.83;1.15;;;;;;;11.95;65.66;100999.59;5109748;28;20223;-60
2023/05/08 06:41:19;;;;;;;1.95;1.00;;;;;;;11.87;65.24;100974.34;5109230;28;20038;-61
2023/05/08 06:43:44;;;;;;;1.30;1.20;;;;;;;12.03;64.98;100993.59;5101197;28;20051;-60
2023/05/08 06:46:10;;;;;;;1.60;1.25;;;;;;;12.16;65.13;100994.28;5107899;28;20023;-60
2023/05/08 06:48:35;;;;;;;4.45;1.23;;;;;;;12.23;64.82;100993.66;5108973;28;20027;-60
2023/05/08 06:51:01;;;;;;;1.33;1.00;;;;;;;12.38;64.48;101002.25;5109321;28;20050;-60
2023/05/08 06:53:26;;;;;;;1.90;1.00;;;;;;;12.50;63.33;101003.88;5109200;28;20020;-60
2023/05/08 06:55:52;;;;;;;1.13;1.00;;;;;;;12.61;62.52;101003.84;5109076;28;20043;-60
2023/05/08 06:58:17;;;;;;;4.55;1.00;;;;;;;12.66;62.34;101009.69;5108691;28;20496;-60
2023/05/08 07:00:43;;;;;;;2.67;1.23;;;;;;;12.77;61.50;101004.25;5109368;28;20031;-61
2023/05/08 07:03:08;;;;;;;5.13;1.20;;;;;;;12.86;61.86;100998.03;5108708;28;20019;-61
2023/05/08 07:05:34;;;;;;;2.42;1.50;;;;;;;12.97;62.00;101000.69;5109466;28;20035;-60
2023/05/08 07:07:59;;;;;;;1.15;1.05;;;;;;;13.12;61.42;101004.75;5109066;28;20051;-60
2023/05/08 07:10:25;;;;;;;2.10;1.55;;;;;;;13.32;61.31;101002.00;5109027;28;20499;-60
2023/05/08 07:12:50;;;;;;;2.75;1.30;;;;;;;13.51;61.10;101010.16;5108405;28;20549;-60
2023/05/08 07:15:16;;;;;;;5.03;1.25;;;;;;;13.59;60.04;100987.94;5108997;28;20073;-60
2023/05/08 07:21:03;;;;;;;1.80;1.30;;;;;;;14.10;58.27;101002.09;5166014;22;20408;-60
2023/05/08 07:23:29;;;;;;;4.30;1.40;;;;;;;14.37;57.51;101002.25;5110202;28;20019;-60
2023/05/08 07:25:54;;;;;;;3.50;1.50;;;;;;;14.57;57.81;101008.53;5108570;28;20028;-60
2023/05/08 07:28:20;;;;;;;7.63;2.25;;;;;;;14.70;56.50;101003.69;5111462;28;20160;-60
2023/05/08 07:30:46;;;;;;;3.88;1.58;;;;;;;14.79;56.71;100994.69;5111857;28;20644;-61
2023/05/08 07:33:11;;;;;;;2.25;1.50;;;;;;;14.90;56.58;101000.78;5111577;28;20031;-61
2023/05/08 07:35:40;;;;;;;3.10;1.55;;;;;;;15.02;56.46;101001.44;5109622;28;20046;-60
2023/05/08 07:38:07;;;;;;;1.50;1.40;;;;;;;15.01;56.19;100986.25;5108807;28;20051;-60
2023/05/08 07:40:32;;;;;;;1.90;1.52;;;;;;;15.22;56.34;101009.34;5112263;28;20027;-61
2023/05/08 07:42:58;;;;;;;2.00;1.50;;;;;;;15.27;55.48;101008.91;5111031;28;20023;-66
2023/05/08 07:45:23;;;;;;;3.70;1.42;;;;;;;15.41;55.07;101003.91;5112119;28;20098;-66
2023/05/08 07:47:53;;;;;;;2.33;1.80;;;;;;;15.56;54.67;101002.44;5112015;28;20031;-67
2023/05/08 07:50:20;;;;;;;5.07;1.60;;;;;;;15.69;54.76;101008.34;5111671;28;20028;-66
2023/05/08 07:52:46;;;;;;;4.32;1.40;;;;;;;15.71;53.97;100992.78;5111910;28;20028;-66
2023/05/08 07:55:12;;;;;;;2.47;0.90;;;;;;;15.82;53.72;101000.72;5111831;28;20056;-66
2023/05/08 07:57:39;;;;;;;2.13;1.25;;;;;;;15.92;53.76;100997.09;5112411;28;20039;-67
2023/05/08 08:00:06;;;;;;;2.35;1.20;;;;;;;16.01;53.72;101007.00;5111430;28;20844;-67
2023/05/08 08:02:31;;;;;;;3.78;1.20;;;;;;;16.08;53.38;101000.81;5110969;28;20024;-67
2023/05/08 08:04:56;;;;;;;1.90;1.15;;;;;;;16.10;53.61;100995.25;5110994;28;20035;-66
2023/05/08 08:07:22;;;;;;;1.30;1.20;;;;;;;15.99;52.89;100977.38;5112088;28;20031;-67
2023/05/08 08:09:47;;;;;;;1.30;1.20;;;;;;;16.00;52.91;100994.47;5111847;28;20015;-67
2023/05/08 08:12:13;;;;;;;3.83;1.00;;;;;;;16.14;51.91;100996.66;5111878;28;20024;-67
2023/05/08 08:14:38;;;;;;;3.97;1.00;;;;;;;16.09;51.85;101005.22;5112092;28;20118;-67
2023/05/08 08:17:04;;;;;;;2.05;1.23;;;;;;;16.14;52.09;100997.50;5111569;28;20030;-67
2023/05/08 08:19:29;;;;;;;0.98;0.88;;;;;;;16.22;53.03;100991.31;5110498;28;20035;-66
2023/05/08 08:21:55;;;;;;;2.47;1.00;;;;;;;16.35;52.10;101000.75;5110704;28;20023;-67
2023/05/08 08:24:21;;;;;;;4.07;1.52;;;;;;;16.26;51.84;100973.75;5111088;28;20031;-67
2023/05/08 08:26:47;;;;;;;7.30;1.48;;;;;;;16.38;52.42;101000.44;5110810;28;20066;-67
2023/05/08 08:29:13;;;;;;;1.90;1.20;;;;;;;16.34;52.08;100974.69;5110226;28;20028;-67
2023/05/08 08:31:38;;;;;;;2.33;1.45;;;;;;;16.46;52.61;100986.16;5111891;28;20016;-67
2023/05/08 08:34:04;;;;;;;2.15;1.00;;;;;;;16.47;52.20;100974.34;5101909;28;20088;-67
2023/05/08 08:36:29;;;;;;;1.30;1.20;;;;;;;16.57;51.21;100983.22;5111775;28;20031;-67
2023/05/08 08:38:54;;;;;;;3.60;1.50;;;;;;;16.57;51.81;100994.06;5110929;28;20055;-67
2023/05/08 08:41:21;;;;;;;2.60;1.10;;;;;;;16.62;51.25;100980.88;5110916;28;20464;-66
2023/05/08 08:43:46;;;;;;;1.20;1.10;;;;;;;16.70;51.03;100995.34;5111215;28;20031;-66
2023/05/08 08:46:16;;;;;;;1.92;1.13;;;;;;;16.75;51.67;100987.59;5111306;28;20032;-66
2023/05/08 08:48:45;;;;;;;0.73;0.63;;;;;;;16.81;51.58;100989.69;5096049;28;20028;-67
2023/05/08 08:51:22;;;;;;;3.65;1.20;;;;;;;16.91;50.47;100995.00;5109753;28;20035;-67
2023/05/08 08:53:53;;;;;;;1.30;1.20;;;;;;;16.88;50.49;100963.66;5110848;28;20084;-67
2023/05/08 08:56:22;;;;;;;1.00;0.90;;;;;;;17.07;50.10;100992.38;5110954;28;20032;-66
2023/05/08 08:59:00;;;;;;;3.92;1.38;;;;;;;17.19;49.83;100983.81;4821167;28;10000611;-66
2023/05/08 09:01:28;;;;;;;2.13;1.20;;;;;;;17.14;51.38;100988.88;5105270;28;20587;-66
2023/05/08 09:03:56;;;;;;;4.97;1.42;;;;;;;17.19;51.06;100991.13;5110198;27;20130;-67
2023/05/08 09:06:22;;;;;;;1.30;1.20;;;;;;;17.22;50.60;100991.63;5107562;27;20066;-66
2023/05/08 09:08:48;;;;;;;4.10;1.35;;;;;;;17.19;49.12;100985.69;5107431;28;20051;-66
2023/05/08 09:11:13;;;;;;;1.73;1.20;;;;;;;17.11;49.15;100981.06;5109213;27;20036;-67
2023/05/08 09:13:39;;;;;;;3.47;1.20;;;;;;;17.15;49.43;100998.69;5107831;28;20092;-67
2023/05/08 09:16:05;;;;;;;7.68;1.33;;;;;;;17.19;50.21;100982.97;5107832;28;20038;-67
2023/05/08 09:18:30;;;;;;;4.25;1.27;;;;;;;17.23;50.51;100985.22;5107861;28;20053;-66
2023/05/08 09:20:56;;;;;;;2.33;1.60;;;;;;;17.34;50.48;100982.22;5107260;28;20051;-67
2023/05/08 09:23:22;;;;;;;5.05;1.30;;;;;;;17.45;50.20;100989.25;5104930;28;20122;-67
2023/05/08 09:25:49;;;;;;;4.63;1.10;;;;;;;17.51;48.75;100999.47;5110129;27;20036;-67
2023/05/08 09:28:18;;;;;;;1.83;1.08;;;;;;;17.47;49.58;100990.78;5107303;28;20050;-67
2023/05/08 09:30:51;;;;;;;3.47;1.50;;;;;;;17.52;49.87;100996.59;5105341;28;20072;-66
2023/05/08 09:33:17;;;;;;;1.60;1.30;;;;;;;17.56;48.81;100991.66;5107562;28;20042;-67
2023/05/08 09:35:42;;;;;;;1.27;1.08;;;;;;;17.62;49.02;100989.16;5107363;28;20097;-66
2023/05/08 09:38:08;;;;;;;3.15;1.13;;;;;;;17.58;48.79;100978.81;5105937;28;20077;-66
2023/05/08 09:40:33;;;;;;;2.17;1.05;;;;;;;17.69;49.04;100986.63;5088493;28;20039;-67
2023/05/08 09:43:12;;;;;;;1.30;1.20;;;;;;;17.63;49.00;100993.56;5107217;28;20020;-67
2023/05/08 09:45:38;;;;;;;3.75;1.63;;;;;;;17.68;49.35;100988.50;5106907;28;20664;-67
2023/05/08 09:48:05;;;;;;;1.40;1.27;;;;;;;17.71;48.35;100987.31;5107262;28;20148;-67
2023/05/08 09:50:32;;;;;;;3.35;1.17;;;;;;;17.60;48.91;100985.75;5087153;28;20031;-67
2023/05/08 09:52:57;;;;;;;2.75;1.40;;;;;;;17.59;48.82;100981.34;5107670;27;20050;-67
2023/05/08 09:55:23;;;;;;;2.15;1.33;;;;;;;17.60;49.36;100971.31;5106583;28;20488;-67
2023/05/08 09:57:53;;;;;;;1.80;1.15;;;;;;;17.66;48.80;100970.69;5107375;28;20434;-67
2023/05/08 10:00:19;;;;;;;2.47;1.30;;;;;;;17.62;48.35;100980.16;5106322;28;20020;-67
2023/05/08 10:02:58;;;;;;;4.35;1.05;;;;;;;17.57;47.85;100977.09;5105839;28;20024;-67
2023/05/08 10:05:31;;;;;;;1.50;0.93;;;;;;;17.68;48.33;100990.38;5105442;28;20495;-67
2023/05/08 10:08:19;;;;;;;4.38;1.02;;;;;;;17.71;48.35;100985.44;5105380;28;20054;-67
2023/05/08 10:10:45;;;;;;;3.20;1.10;;;;;;;17.67;48.43;100975.13;5106824;28;20031;-67
2023/05/08 10:13:10;;;;;;;1.90;1.02;;;;;;;17.77;47.84;100973.94;5108890;27;20472;-67
2023/05/08 10:15:38;;;;;;;1.10;1.00;;;;;;;17.78;48.75;100974.78;5101350;28;20035;-67
2023/05/08 10:18:06;;;;;;;1.08;0.98;;;;;;;17.72;49.04;100970.88;5105753;28;20029;-67
2023/05/08 10:20:33;;;;;;;0.95;0.88;;;;;;;17.79;48.81;100980.06;5101590;28;20035;-67
2023/05/08 10:23:00;;;;;;;2.88;0.90;;;;;;;17.59;48.95;100932.53;5105149;28;20039;-67
2023/05/08 10:25:34;;;;;;;2.95;0.90;;;;;;;17.86;48.56;100967.53;5106623;28;20357;-60
2023/05/08 10:28:12;;;;;;;1.60;0.93;;;;;;;17.90;48.94;100970.78;5105569;28;20039;-63
2023/05/08 10:30:43;;;;;;;1.35;0.98;;;;;;;17.98;49.08;100966.22;5082472;28;20038;-61
2023/05/08 10:33:10;;;;;;;4.05;1.05;;;;;;;17.96;48.60;100972.81;5088125;28;20012;-61
2023/05/08 10:35:39;;;;;;;1.08;0.80;;;;;;;17.95;47.97;100963.81;5104305;28;20035;-61
2023/05/08 10:38:07;;;;;;;2.55;0.73;;;;;;;17.95;47.89;100960.25;5104883;28;20088;-60
2023/05/08 10:40:33;;;;;;;5.63;0.93;;;;;;;17.93;47.20;100965.00;5087802;28;20027;-61
2023/05/08 10:42:59;;;;;;;1.20;0.90;;;;;;;17.95;47.42;100957.53;5105317;28;20027;-63
2023/05/08 10:45:26;;;;;;;2.00;1.05;;;;;;;17.83;48.16;100956.13;5105608;28;20508;-61
2023/05/08 10:48:00;;;;;;;2.42;0.90;;;;;;;18.00;47.26;100961.44;5086815;28;20024;-61
2023/05/08 10:50:53;;;;;;;1.80;0.55;;;;;;;18.20;48.18;100948.41;5104901;28;20034;-61
2023/05/08 10:53:41;;;;;;;6.18;0.70;;;;;;;18.17;47.19;100959.63;5087116;28;20028;-62
2023/05/08 10:56:06;;;;;;;0.80;0.80;;;;;;;18.16;47.94;100970.66;5105276;28;20494;-62
2023/05/08 10:58:34;;;;;;;1.20;1.10;;;;;;;18.19;46.95;100962.16;5105913;28;20054;-61
2023/05/08 11:01:02;;;;;;;3.95;0.70;;;;;;;18.27;47.03;100978.44;5105479;28;20150;-62
2023/05/08 11:03:29;;;;;;;1.40;1.05;;;;;;;18.22;47.52;100968.13;5090742;28;20423;-61
2023/05/08 11:05:56;;;;;;;3.35;1.05;;;;;;;18.22;46.88;100961.84;5105686;28;20040;-61
2023/05/08 11:08:27;;;;;;;1.55;0.98;;;;;;;18.24;46.83;100965.22;5105459;28;20384;-62
2023/05/08 11:11:02;;;;;;;3.45;1.45;;;;;;;18.29;47.39;100966.44;5085949;28;20020;-62
2023/05/08 11:13:39;;;;;;;1.27;1.17;;;;;;;18.30;46.84;100954.53;5085501;28;20023;-61
2023/05/08 11:16:06;;;;;;;2.60;1.15;;;;;;;18.36;47.10;100955.72;5103724;28;20574;-62
2023/05/08 11:18:32;;;;;;;7.28;1.15;;;;;;;18.27;47.04;100945.88;5103894;28;20035;-62
2023/05/08 11:21:13;;;;;;;2.80;1.10;;;;;;;18.35;46.42;100957.63;5106057;28;20478;-61
2023/05/08 11:23:38;;;;;;;3.97;1.20;;;;;;;18.38;45.81;100964.59;5104044;28;20345;-62
2023/05/08 11:26:10;;;;;;;1.45;1.02;;;;;;;18.35;46.97;100959.47;5105750;28;20035;-62
2023/05/08 11:28:39;;;;;;;1.77;1.27;;;;;;;18.38;45.82;100953.72;5105630;28;20031;-61
2023/05/08 11:31:08;;;;;;;4.20;1.30;;;;;;;18.36;45.90;100959.34;5105322;28;20062;-61
2023/05/08 11:33:36;;;;;;;2.22;1.00;;;;;;;18.31;44.65;100955.41;5105565;28;20472;-61
2023/05/08 11:36:15;;;;;;;0.88;0.80;;;;;;;18.31;45.80;100955.41;5105142;28;20028;-61